sensor_id;sensor_type;location;lat;lon;timestamp;P1;durP1;ratioP1;P2;durP2;ratioP2
22211;SDS011;11275;52.488;13.462;2023-07-31T00:00:28;2.50;;;1.10;;
22211;SDS011;11275;52.488;13.462;2023-07-31T00:02:53;1.88;;;0.80;;
22211;SDS011;11275;52.488;13.462;2023-07-31T00:05:19;1.75;;;0.60;;
22211;SDS011;11275;52.488;13.462;2023-07-31T00:07:45;2.00;;;0.70;;
22211;SDS011;11275;52.488;13.462;2023-07-31T00:10:11;2.55;;;0.90;;
22211;SDS011;11275;52.488;13.462;2023-07-31T00:12:37;1.60;;;0.80;;
22211;SDS011;11275;52.488;13.462;2023-07-31T00:15:04;2.15;;;0.85;;
22211;SDS011;11275;52.488;13.462;2023-07-31T00:17:31;2.67;;;1.10;;
22211;SDS011;11275;52.488;13.462;2023-07-31T00:19:57;2.42;;;0.90;;
22211;SDS011;11275;52.488;13.462;2023-07-31T00:22:22;2.97;;;1.20;;
22211;SDS011;11275;52.488;13.462;2023-07-31T00:24:48;2.03;;;0.90;;
22211;SDS011;11275;52.488;13.462;2023-07-31T00:27:14;4.20;;;1.20;;
22211;SDS011;11275;52.488;13.462;2023-07-31T00:29:39;2.63;;;1.05;;
22211;SDS011;11275;52.488;13.462;2023-07-31T00:32:05;5.35;;;1.33;;
22211;SDS011;11275;52.488;13.462;2023-07-31T00:34:31;2.20;;;1.00;;
22211;SDS011;11275;52.488;13.462;2023-07-31T00:36:57;2.03;;;0.90;;
22211;SDS011;11275;52.488;13.462;2023-07-31T00:39:23;1.83;;;0.88;;
22211;SDS011;11275;52.488;13.462;2023-07-31T00:41:48;4.25;;;0.90;;
22211;SDS011;11275;52.488;13.462;2023-07-31T00:44:14;2.50;;;1.00;;
22211;SDS011;11275;52.488;13.462;2023-07-31T00:46:39;3.13;;;1.23;;
22211;SDS011;11275;52.488;13.462;2023-07-31T00:49:05;2.65;;;1.00;;
22211;SDS011;11275;52.488;13.462;2023-07-31T00:51:31;2.63;;;0.90;;
22211;SDS011;11275;52.488;13.462;2023-07-31T00:53:57;3.00;;;1.20;;
22211;SDS011;11275;52.488;13.462;2023-07-31T00:56:23;2.95;;;1.10;;
22211;SDS011;11275;52.488;13.462;2023-07-31T00:58:50;2.72;;;1.13;;
22211;SDS011;11275;52.488;13.462;2023-07-31T01:01:15;2.65;;;1.02;;
22211;SDS011;11275;52.488;13.462;2023-07-31T01:03:41;3.50;;;1.20;;
22211;SDS011;11275;52.488;13.462;2023-07-31T01:09:05;1.80;;;1.00;;
22211;SDS011;11275;52.488;13.462;2023-07-31T01:11:31;3.10;;;0.93;;
22211;SDS011;11275;52.488;13.462;2023-07-31T01:14:00;2.17;;;1.00;;
22211;SDS011;11275;52.488;13.462;2023-07-31T01:16:26;2.88;;;1.25;;
22211;SDS011;11275;52.488;13.462;2023-07-31T01:18:52;2.78;;;1.08;;
22211;SDS011;11275;52.488;13.462;2023-07-31T01:26:34;3.67;;;1.20;;
22211;SDS011;11275;52.488;13.462;2023-07-31T01:31:26;4.10;;;1.23;;
22211;SDS011;11275;52.488;13.462;2023-07-31T01:33:56;3.25;;;1.10;;
22211;SDS011;11275;52.488;13.462;2023-07-31T01:36:24;4.07;;;1.23;;
22211;SDS011;11275;52.488;13.462;2023-07-31T01:38:50;2.47;;;1.02;;
22211;SDS011;11275;52.488;13.462;2023-07-31T01:41:17;1.95;;;1.10;;
22211;SDS011;11275;52.488;13.462;2023-07-31T01:43:43;2.85;;;0.98;;
22211;SDS011;11275;52.488;13.462;2023-07-31T01:46:10;3.67;;;1.15;;
22211;SDS011;11275;52.488;13.462;2023-07-31T01:48:35;3.35;;;0.95;;
22211;SDS011;11275;52.488;13.462;2023-07-31T01:51:02;2.50;;;1.13;;
22211;SDS011;11275;52.488;13.462;2023-07-31T01:53:28;3.17;;;1.10;;
22211;SDS011;11275;52.488;13.462;2023-07-31T01:55:55;2.35;;;1.15;;
22211;SDS011;11275;52.488;13.462;2023-07-31T01:58:20;2.55;;;1.02;;
22211;SDS011;11275;52.488;13.462;2023-07-31T02:00:46;3.15;;;1.10;;
22211;SDS011;11275;52.488;13.462;2023-07-31T02:03:12;1.65;;;1.02;;
22211;SDS011;11275;52.488;13.462;2023-07-31T02:05:43;2.55;;;1.00;;
22211;SDS011;11275;52.488;13.462;2023-07-31T02:08:13;3.78;;;1.55;;
22211;SDS011;11275;52.488;13.462;2023-07-31T02:10:39;2.60;;;1.00;;
22211;SDS011;11275;52.488;13.462;2023-07-31T02:13:04;3.03;;;1.20;;
22211;SDS011;11275;52.488;13.462;2023-07-31T02:15:30;2.72;;;1.30;;
22211;SDS011;11275;52.488;13.462;2023-07-31T02:17:56;3.20;;;1.13;;
22211;SDS011;11275;52.488;13.462;2023-07-31T02:20:21;2.60;;;1.20;;
22211;SDS011;11275;52.488;13.462;2023-07-31T02:22:47;2.47;;;1.20;;
22211;SDS011;11275;52.488;13.462;2023-07-31T02:25:13;2.83;;;1.20;;
22211;SDS011;11275;52.488;13.462;2023-07-31T02:27:38;1.98;;;1.30;;
22211;SDS011;11275;52.488;13.462;2023-07-31T02:30:04;4.88;;;1.20;;
22211;SDS011;11275;52.488;13.462;2023-07-31T02:32:30;3.15;;;1.25;;
22211;SDS011;11275;52.488;13.462;2023-07-31T02:34:56;3.35;;;1.52;;
22211;SDS011;11275;52.488;13.462;2023-07-31T02:37:21;3.38;;;1.73;;
22211;SDS011;11275;52.488;13.462;2023-07-31T02:39:47;2.65;;;1.40;;
22211;SDS011;11275;52.488;13.462;2023-07-31T02:42:14;2.83;;;1.55;;
22211;SDS011;11275;52.488;13.462;2023-07-31T02:44:39;3.10;;;1.45;;
22211;SDS011;11275;52.488;13.462;2023-07-31T02:47:05;3.15;;;1.40;;
22211;SDS011;11275;52.488;13.462;2023-07-31T02:49:31;3.88;;;1.73;;
22211;SDS011;11275;52.488;13.462;2023-07-31T02:51:57;2.35;;;1.50;;
22211;SDS011;11275;52.488;13.462;2023-07-31T02:54:22;2.83;;;1.30;;
22211;SDS011;11275;52.488;13.462;2023-07-31T02:56:48;2.35;;;1.30;;
22211;SDS011;11275;52.488;13.462;2023-07-31T02:59:14;3.03;;;1.48;;
22211;SDS011;11275;52.488;13.462;2023-07-31T03:01:39;2.63;;;1.40;;
22211;SDS011;11275;52.488;13.462;2023-07-31T03:04:05;3.10;;;1.50;;
22211;SDS011;11275;52.488;13.462;2023-07-31T03:06:30;3.97;;;1.98;;
22211;SDS011;11275;52.488;13.462;2023-07-31T03:08:56;3.83;;;1.95;;
22211;SDS011;11275;52.488;13.462;2023-07-31T03:11:21;4.60;;;2.17;;
22211;SDS011;11275;52.488;13.462;2023-07-31T03:13:47;4.45;;;1.90;;
22211;SDS011;11275;52.488;13.462;2023-07-31T03:16:13;5.47;;;2.38;;
22211;SDS011;11275;52.488;13.462;2023-07-31T03:18:38;4.88;;;2.50;;
22211;SDS011;11275;52.488;13.462;2023-07-31T03:21:04;3.83;;;2.58;;
22211;SDS011;11275;52.488;13.462;2023-07-31T03:23:30;4.68;;;2.50;;
22211;SDS011;11275;52.488;13.462;2023-07-31T03:25:59;4.63;;;2.33;;
22211;SDS011;11275;52.488;13.462;2023-07-31T03:28:28;5.75;;;2.35;;
22211;SDS011;11275;52.488;13.462;2023-07-31T03:30:54;5.70;;;2.28;;
22211;SDS011;11275;52.488;13.462;2023-07-31T03:33:20;4.45;;;2.35;;
22211;SDS011;11275;52.488;13.462;2023-07-31T03:35:46;7.35;;;2.45;;
22211;SDS011;11275;52.488;13.462;2023-07-31T03:38:11;3.42;;;1.70;;
22211;SDS011;11275;52.488;13.462;2023-07-31T03:40:37;4.40;;;2.08;;
22211;SDS011;11275;52.488;13.462;2023-07-31T03:43:02;3.63;;;1.83;;
22211;SDS011;11275;52.488;13.462;2023-07-31T03:45:28;4.25;;;2.00;;
22211;SDS011;11275;52.488;13.462;2023-07-31T03:47:54;3.13;;;2.05;;
22211;SDS011;11275;52.488;13.462;2023-07-31T03:50:19;5.38;;;2.00;;
22211;SDS011;11275;52.488;13.462;2023-07-31T03:52:45;4.28;;;1.60;;
22211;SDS011;11275;52.488;13.462;2023-07-31T03:55:11;3.60;;;2.03;;
22211;SDS011;11275;52.488;13.462;2023-07-31T03:57:37;4.88;;;2.08;;
22211;SDS011;11275;52.488;13.462;2023-07-31T04:00:03;3.08;;;1.65;;
22211;SDS011;11275;52.488;13.462;2023-07-31T04:02:29;2.47;;;1.70;;
22211;SDS011;11275;52.488;13.462;2023-07-31T04:04:54;4.07;;;1.88;;
22211;SDS011;11275;52.488;13.462;2023-07-31T04:07:20;3.45;;;1.70;;
22211;SDS011;11275;52.488;13.462;2023-07-31T04:09:46;4.18;;;1.80;;
22211;SDS011;11275;52.488;13.462;2023-07-31T04:12:11;5.47;;;2.47;;
22211;SDS011;11275;52.488;13.462;2023-07-31T04:14:37;2.45;;;1.90;;
22211;SDS011;11275;52.488;13.462;2023-07-31T04:17:02;3.17;;;1.98;;
22211;SDS011;11275;52.488;13.462;2023-07-31T04:19:28;3.80;;;1.90;;
22211;SDS011;11275;52.488;13.462;2023-07-31T04:21:54;3.33;;;2.15;;
22211;SDS011;11275;52.488;13.462;2023-07-31T04:24:19;5.50;;;2.13;;
22211;SDS011;11275;52.488;13.462;2023-07-31T04:26:49;5.17;;;2.17;;
22211;SDS011;11275;52.488;13.462;2023-07-31T04:29:17;2.78;;;1.75;;
22211;SDS011;11275;52.488;13.462;2023-07-31T04:31:43;10.57;;;2.90;;
22211;SDS011;11275;52.488;13.462;2023-07-31T04:34:08;3.22;;;2.30;;
22211;SDS011;11275;52.488;13.462;2023-07-31T04:36:34;6.22;;;2.10;;
22211;SDS011;11275;52.488;13.462;2023-07-31T04:39:00;4.13;;;1.90;;
22211;SDS011;11275;52.488;13.462;2023-07-31T04:41:26;4.85;;;1.85;;
22211;SDS011;11275;52.488;13.462;2023-07-31T04:43:52;3.40;;;1.90;;
22211;SDS011;11275;52.488;13.462;2023-07-31T04:46:17;4.40;;;2.00;;
22211;SDS011;11275;52.488;13.462;2023-07-31T04:48:43;5.45;;;2.10;;
22211;SDS011;11275;52.488;13.462;2023-07-31T04:51:09;4.72;;;2.08;;
22211;SDS011;11275;52.488;13.462;2023-07-31T04:53:34;4.43;;;1.90;;
22211;SDS011;11275;52.488;13.462;2023-07-31T04:56:01;4.70;;;2.20;;
22211;SDS011;11275;52.488;13.462;2023-07-31T04:58:27;4.70;;;2.10;;
22211;SDS011;11275;52.488;13.462;2023-07-31T05:00:53;5.28;;;1.80;;
22211;SDS011;11275;52.488;13.462;2023-07-31T05:03:19;3.97;;;2.28;;
22211;SDS011;11275;52.488;13.462;2023-07-31T05:05:44;8.05;;;2.15;;
22211;SDS011;11275;52.488;13.462;2023-07-31T05:08:10;5.53;;;1.88;;
22211;SDS011;11275;52.488;13.462;2023-07-31T05:10:36;5.95;;;2.17;;
22211;SDS011;11275;52.488;13.462;2023-07-31T05:13:01;5.03;;;1.98;;
22211;SDS011;11275;52.488;13.462;2023-07-31T05:15:27;5.57;;;2.10;;
22211;SDS011;11275;52.488;13.462;2023-07-31T05:17:53;5.57;;;2.22;;
22211;SDS011;11275;52.488;13.462;2023-07-31T05:20:18;5.78;;;1.80;;
22211;SDS011;11275;52.488;13.462;2023-07-31T05:22:44;4.05;;;1.77;;
22211;SDS011;11275;52.488;13.462;2023-07-31T05:25:10;4.10;;;1.70;;
22211;SDS011;11275;52.488;13.462;2023-07-31T05:27:35;8.05;;;1.90;;
22211;SDS011;11275;52.488;13.462;2023-07-31T05:30:01;6.20;;;1.75;;
22211;SDS011;11275;52.488;13.462;2023-07-31T05:32:27;4.75;;;1.83;;
22211;SDS011;11275;52.488;13.462;2023-07-31T05:34:52;5.50;;;1.80;;
22211;SDS011;11275;52.488;13.462;2023-07-31T05:37:18;4.35;;;1.70;;
22211;SDS011;11275;52.488;13.462;2023-07-31T05:39:44;4.05;;;1.60;;
22211;SDS011;11275;52.488;13.462;2023-07-31T05:42:10;3.80;;;1.60;;
22211;SDS011;11275;52.488;13.462;2023-07-31T05:44:36;3.92;;;1.70;;
22211;SDS011;11275;52.488;13.462;2023-07-31T05:47:01;5.28;;;1.52;;
22211;SDS011;11275;52.488;13.462;2023-07-31T05:49:27;3.13;;;1.75;;
22211;SDS011;11275;52.488;13.462;2023-07-31T05:51:53;4.25;;;1.50;;
22211;SDS011;11275;52.488;13.462;2023-07-31T05:54:18;2.85;;;1.50;;
22211;SDS011;11275;52.488;13.462;2023-07-31T05:56:44;4.53;;;1.40;;
22211;SDS011;11275;52.488;13.462;2023-07-31T05:59:11;4.45;;;1.55;;
22211;SDS011;11275;52.488;13.462;2023-07-31T06:01:37;2.83;;;1.50;;
22211;SDS011;11275;52.488;13.462;2023-07-31T06:04:03;4.38;;;1.40;;
22211;SDS011;11275;52.488;13.462;2023-07-31T06:06:28;4.30;;;1.27;;
22211;SDS011;11275;52.488;13.462;2023-07-31T06:08:54;3.15;;;1.35;;
22211;SDS011;11275;52.488;13.462;2023-07-31T06:11:20;4.10;;;1.50;;
22211;SDS011;11275;52.488;13.462;2023-07-31T06:13:47;2.55;;;1.35;;
22211;SDS011;11275;52.488;13.462;2023-07-31T06:16:14;4.20;;;1.65;;
22211;SDS011;11275;52.488;13.462;2023-07-31T06:18:40;2.92;;;1.23;;
22211;SDS011;11275;52.488;13.462;2023-07-31T06:21:07;4.75;;;1.33;;
22211;SDS011;11275;52.488;13.462;2023-07-31T06:23:33;4.00;;;1.50;;
22211;SDS011;11275;52.488;13.462;2023-07-31T06:25:58;4.00;;;1.73;;
22211;SDS011;11275;52.488;13.462;2023-07-31T06:28:31;3.88;;;1.55;;
22211;SDS011;11275;52.488;13.462;2023-07-31T06:30:57;6.30;;;1.23;;
22211;SDS011;11275;52.488;13.462;2023-07-31T06:33:23;5.05;;;1.90;;
22211;SDS011;11275;52.488;13.462;2023-07-31T06:35:49;2.97;;;1.55;;
22211;SDS011;11275;52.488;13.462;2023-07-31T06:38:15;3.72;;;1.60;;
22211;SDS011;11275;52.488;13.462;2023-07-31T06:40:43;3.60;;;1.55;;
22211;SDS011;11275;52.488;13.462;2023-07-31T06:43:09;4.38;;;1.55;;
22211;SDS011;11275;52.488;13.462;2023-07-31T06:45:35;2.25;;;1.30;;
22211;SDS011;11275;52.488;13.462;2023-07-31T06:48:01;3.15;;;1.80;;
22211;SDS011;11275;52.488;13.462;2023-07-31T06:50:28;3.25;;;1.40;;
22211;SDS011;11275;52.488;13.462;2023-07-31T06:52:54;2.75;;;1.23;;
22211;SDS011;11275;52.488;13.462;2023-07-31T06:55:20;4.35;;;1.40;;
22211;SDS011;11275;52.488;13.462;2023-07-31T06:57:47;4.07;;;1.33;;
22211;SDS011;11275;52.488;13.462;2023-07-31T07:00:13;3.15;;;1.27;;
22211;SDS011;11275;52.488;13.462;2023-07-31T07:02:39;4.40;;;1.40;;
22211;SDS011;11275;52.488;13.462;2023-07-31T07:05:05;3.65;;;1.45;;
22211;SDS011;11275;52.488;13.462;2023-07-31T07:07:32;3.35;;;1.40;;
22211;SDS011;11275;52.488;13.462;2023-07-31T07:09:58;3.75;;;1.50;;
22211;SDS011;11275;52.488;13.462;2023-07-31T07:12:29;5.60;;;1.40;;
22211;SDS011;11275;52.488;13.462;2023-07-31T07:14:56;3.33;;;1.35;;
22211;SDS011;11275;52.488;13.462;2023-07-31T07:17:28;3.28;;;1.50;;
22211;SDS011;11275;52.488;13.462;2023-07-31T07:19:58;3.92;;;1.50;;
22211;SDS011;11275;52.488;13.462;2023-07-31T07:22:24;3.95;;;1.70;;
22211;SDS011;11275;52.488;13.462;2023-07-31T07:24:51;2.47;;;1.30;;
22211;SDS011;11275;52.488;13.462;2023-07-31T07:27:16;4.20;;;1.50;;
22211;SDS011;11275;52.488;13.462;2023-07-31T07:29:42;4.60;;;1.58;;
22211;SDS011;11275;52.488;13.462;2023-07-31T07:32:08;3.67;;;1.30;;
22211;SDS011;11275;52.488;13.462;2023-07-31T07:34:33;2.85;;;1.30;;
22211;SDS011;11275;52.488;13.462;2023-07-31T07:36:59;4.43;;;1.73;;
22211;SDS011;11275;52.488;13.462;2023-07-31T07:39:25;3.72;;;1.40;;
22211;SDS011;11275;52.488;13.462;2023-07-31T07:41:50;3.08;;;1.50;;
22211;SDS011;11275;52.488;13.462;2023-07-31T07:44:18;4.38;;;1.60;;
22211;SDS011;11275;52.488;13.462;2023-07-31T07:46:43;3.00;;;1.67;;
22211;SDS011;11275;52.488;13.462;2023-07-31T07:49:09;3.53;;;1.50;;
22211;SDS011;11275;52.488;13.462;2023-07-31T07:51:35;3.00;;;1.42;;
22211;SDS011;11275;52.488;13.462;2023-07-31T07:54:00;2.55;;;1.70;;
22211;SDS011;11275;52.488;13.462;2023-07-31T07:56:26;3.08;;;1.73;;
22211;SDS011;11275;52.488;13.462;2023-07-31T07:58:53;2.20;;;1.40;;
22211;SDS011;11275;52.488;13.462;2023-07-31T08:01:19;2.50;;;1.23;;
22211;SDS011;11275;52.488;13.462;2023-07-31T08:03:45;1.50;;;1.20;;
22211;SDS011;11275;52.488;13.462;2023-07-31T08:06:11;2.45;;;1.30;;
22211;SDS011;11275;52.488;13.462;2023-07-31T08:08:39;3.92;;;1.52;;
22211;SDS011;11275;52.488;13.462;2023-07-31T08:11:05;6.47;;;1.65;;
22211;SDS011;11275;52.488;13.462;2023-07-31T08:13:31;1.80;;;1.10;;
22211;SDS011;11275;52.488;13.462;2023-07-31T08:15:56;3.92;;;1.10;;
22211;SDS011;11275;52.488;13.462;2023-07-31T08:18:22;2.95;;;1.10;;
22211;SDS011;11275;52.488;13.462;2023-07-31T08:20:48;2.22;;;0.95;;
22211;SDS011;11275;52.488;13.462;2023-07-31T08:23:14;2.83;;;0.93;;
22211;SDS011;11275;52.488;13.462;2023-07-31T08:25:39;1.95;;;1.00;;
22211;SDS011;11275;52.488;13.462;2023-07-31T08:28:05;1.70;;;1.10;;
22211;SDS011;11275;52.488;13.462;2023-07-31T08:30:32;2.33;;;1.08;;
22211;SDS011;11275;52.488;13.462;2023-07-31T08:33:00;2.45;;;1.10;;
22211;SDS011;11275;52.488;13.462;2023-07-31T08:35:26;1.98;;;1.30;;
22211;SDS011;11275;52.488;13.462;2023-07-31T08:37:55;2.70;;;0.90;;
22211;SDS011;11275;52.488;13.462;2023-07-31T08:40:20;2.20;;;1.10;;
22211;SDS011;11275;52.488;13.462;2023-07-31T08:42:49;1.90;;;1.00;;
22211;SDS011;11275;52.488;13.462;2023-07-31T08:45:19;2.03;;;1.10;;
22211;SDS011;11275;52.488;13.462;2023-07-31T08:47:49;1.77;;;1.15;;
22211;SDS011;11275;52.488;13.462;2023-07-31T08:50:16;2.67;;;1.20;;
22211;SDS011;11275;52.488;13.462;2023-07-31T08:52:43;2.92;;;1.30;;
22211;SDS011;11275;52.488;13.462;2023-07-31T08:55:10;2.67;;;1.10;;
22211;SDS011;11275;52.488;13.462;2023-07-31T08:57:37;2.70;;;1.20;;
22211;SDS011;11275;52.488;13.462;2023-07-31T09:00:05;2.67;;;1.17;;
22211;SDS011;11275;52.488;13.462;2023-07-31T09:07:34;1.60;;;0.98;;
22211;SDS011;11275;52.488;13.462;2023-07-31T09:10:01;3.05;;;1.30;;
22211;SDS011;11275;52.488;13.462;2023-07-31T09:12:27;2.10;;;0.95;;
22211;SDS011;11275;52.488;13.462;2023-07-31T09:14:53;1.75;;;0.80;;
22211;SDS011;11275;52.488;13.462;2023-07-31T09:17:28;2.13;;;0.90;;
22211;SDS011;11275;52.488;13.462;2023-07-31T09:20:12;2.33;;;0.90;;
22211;SDS011;11275;52.488;13.462;2023-07-31T09:22:39;2.05;;;0.82;;
22211;SDS011;11275;52.488;13.462;2023-07-31T09:25:15;1.92;;;0.90;;
22211;SDS011;11275;52.488;13.462;2023-07-31T09:27:50;1.80;;;1.00;;
22211;SDS011;11275;52.488;13.462;2023-07-31T09:30:19;3.92;;;1.00;;
22211;SDS011;11275;52.488;13.462;2023-07-31T09:32:45;2.22;;;0.90;;
22211;SDS011;11275;52.488;13.462;2023-07-31T09:35:29;2.05;;;1.08;;
22211;SDS011;11275;52.488;13.462;2023-07-31T09:38:14;1.52;;;0.80;;
22211;SDS011;11275;52.488;13.462;2023-07-31T09:40:41;1.65;;;0.60;;
22211;SDS011;11275;52.488;13.462;2023-07-31T09:43:21;1.08;;;0.77;;
22211;SDS011;11275;52.488;13.462;2023-07-31T09:45:47;0.75;;;0.60;;
22211;SDS011;11275;52.488;13.462;2023-07-31T09:48:15;2.53;;;0.60;;
22211;SDS011;11275;52.488;13.462;2023-07-31T09:50:42;0.93;;;0.60;;
22211;SDS011;11275;52.488;13.462;2023-07-31T09:53:09;1.40;;;0.60;;
22211;SDS011;11275;52.488;13.462;2023-07-31T09:55:35;2.58;;;0.60;;
22211;SDS011;11275;52.488;13.462;2023-07-31T09:58:03;1.02;;;0.68;;
22211;SDS011;11275;52.488;13.462;2023-07-31T10:00:30;1.08;;;0.65;;
22211;SDS011;11275;52.488;13.462;2023-07-31T10:02:58;0.90;;;0.60;;
22211;SDS011;11275;52.488;13.462;2023-07-31T10:05:30;1.55;;;0.70;;
22211;SDS011;11275;52.488;13.462;2023-07-31T10:07:59;1.60;;;1.08;;
22211;SDS011;11275;52.488;13.462;2023-07-31T10:10:25;2.67;;;0.90;;
22211;SDS011;11275;52.488;13.462;2023-07-31T10:12:53;1.70;;;0.80;;
22211;SDS011;11275;52.488;13.462;2023-07-31T10:15:20;1.52;;;1.00;;
22211;SDS011;11275;52.488;13.462;2023-07-31T10:17:47;2.15;;;1.15;;
22211;SDS011;11275;52.488;13.462;2023-07-31T10:20:13;3.03;;;1.25;;
22211;SDS011;11275;52.488;13.462;2023-07-31T10:22:41;4.15;;;1.00;;
22211;SDS011;11275;52.488;13.462;2023-07-31T10:25:08;3.22;;;1.42;;
22211;SDS011;11275;52.488;13.462;2023-07-31T10:27:35;3.88;;;1.63;;
22211;SDS011;11275;52.488;13.462;2023-07-31T10:30:03;2.70;;;1.40;;
22211;SDS011;11275;52.488;13.462;2023-07-31T10:32:30;2.80;;;1.70;;
22211;SDS011;11275;52.488;13.462;2023-07-31T10:34:57;2.78;;;1.50;;
22211;SDS011;11275;52.488;13.462;2023-07-31T10:37:24;2.85;;;1.67;;
22211;SDS011;11275;52.488;13.462;2023-07-31T10:39:58;3.13;;;1.70;;
22211;SDS011;11275;52.488;13.462;2023-07-31T10:44:58;5.47;;;2.03;;
22211;SDS011;11275;52.488;13.462;2023-07-31T10:47:25;4.13;;;1.75;;
22211;SDS011;11275;52.488;13.462;2023-07-31T10:49:51;3.72;;;1.73;;
22211;SDS011;11275;52.488;13.462;2023-07-31T10:52:20;2.70;;;2.10;;
22211;SDS011;11275;52.488;13.462;2023-07-31T10:55:12;4.45;;;1.80;;
22211;SDS011;11275;52.488;13.462;2023-07-31T10:57:49;5.75;;;1.90;;
22211;SDS011;11275;52.488;13.462;2023-07-31T11:00:19;2.63;;;1.90;;
22211;SDS011;11275;52.488;13.462;2023-07-31T11:03:00;2.83;;;2.03;;
22211;SDS011;11275;52.488;13.462;2023-07-31T11:05:42;3.53;;;1.90;;
22211;SDS011;11275;52.488;13.462;2023-07-31T11:08:12;3.55;;;2.20;;
22211;SDS011;11275;52.488;13.462;2023-07-31T11:10:38;4.53;;;2.22;;
22211;SDS011;11275;52.488;13.462;2023-07-31T11:13:04;5.78;;;3.08;;
22211;SDS011;11275;52.488;13.462;2023-07-31T11:15:30;9.07;;;3.08;;
22211;SDS011;11275;52.488;13.462;2023-07-31T11:17:56;10.13;;;2.65;;
22211;SDS011;11275;52.488;13.462;2023-07-31T11:20:23;5.47;;;3.05;;
22211;SDS011;11275;52.488;13.462;2023-07-31T11:22:49;4.15;;;2.22;;
22211;SDS011;11275;52.488;13.462;2023-07-31T11:25:15;4.82;;;1.85;;
22211;SDS011;11275;52.488;13.462;2023-07-31T11:27:42;3.85;;;2.70;;
22211;SDS011;11275;52.488;13.462;2023-07-31T11:30:09;2.75;;;1.58;;
22211;SDS011;11275;52.488;13.462;2023-07-31T11:32:37;2.15;;;1.67;;
22211;SDS011;11275;52.488;13.462;2023-07-31T11:35:03;3.70;;;1.80;;
22211;SDS011;11275;52.488;13.462;2023-07-31T11:37:40;3.80;;;2.70;;
22211;SDS011;11275;52.488;13.462;2023-07-31T11:40:07;3.10;;;1.90;;
22211;SDS011;11275;52.488;13.462;2023-07-31T11:42:34;3.78;;;2.00;;
22211;SDS011;11275;52.488;13.462;2023-07-31T11:45:03;3.92;;;1.50;;
22211;SDS011;11275;52.488;13.462;2023-07-31T11:47:30;3.67;;;1.52;;
22211;SDS011;11275;52.488;13.462;2023-07-31T11:50:02;4.18;;;1.65;;
22211;SDS011;11275;52.488;13.462;2023-07-31T11:52:33;3.50;;;1.90;;
22211;SDS011;11275;52.488;13.462;2023-07-31T11:55:05;3.60;;;2.38;;
22211;SDS011;11275;52.488;13.462;2023-07-31T11:57:34;2.57;;;1.57;;
22211;SDS011;11275;52.488;13.462;2023-07-31T12:00:02;3.35;;;1.90;;
22211;SDS011;11275;52.488;13.462;2023-07-31T12:02:29;2.97;;;2.05;;
22211;SDS011;11275;52.488;13.462;2023-07-31T12:04:55;2.63;;;1.83;;
22211;SDS011;11275;52.488;13.462;2023-07-31T12:07:23;4.82;;;2.53;;
22211;SDS011;11275;52.488;13.462;2023-07-31T12:09:55;3.33;;;2.10;;
22211;SDS011;11275;52.488;13.462;2023-07-31T12:12:22;3.70;;;1.85;;
22211;SDS011;11275;52.488;13.462;2023-07-31T12:14:48;3.58;;;1.95;;
22211;SDS011;11275;52.488;13.462;2023-07-31T12:17:16;3.25;;;2.08;;
22211;SDS011;11275;52.488;13.462;2023-07-31T12:19:42;3.97;;;1.73;;
22211;SDS011;11275;52.488;13.462;2023-07-31T12:22:11;4.03;;;1.60;;
22211;SDS011;11275;52.488;13.462;2023-07-31T12:24:42;2.67;;;1.65;;
22211;SDS011;11275;52.488;13.462;2023-07-31T12:27:12;4.85;;;1.52;;
22211;SDS011;11275;52.488;13.462;2023-07-31T12:29:41;3.25;;;1.65;;
22211;SDS011;11275;52.488;13.462;2023-07-31T12:32:23;3.67;;;2.05;;
22211;SDS011;11275;52.488;13.462;2023-07-31T12:34:54;3.38;;;1.98;;
22211;SDS011;11275;52.488;13.462;2023-07-31T12:37:24;3.17;;;1.67;;
22211;SDS011;11275;52.488;13.462;2023-07-31T12:39:49;2.63;;;1.40;;
22211;SDS011;11275;52.488;13.462;2023-07-31T12:42:17;2.75;;;1.38;;
22211;SDS011;11275;52.488;13.462;2023-07-31T12:44:42;4.18;;;1.73;;
22211;SDS011;11275;52.488;13.462;2023-07-31T12:47:08;2.83;;;1.65;;
22211;SDS011;11275;52.488;13.462;2023-07-31T12:49:34;4.38;;;1.58;;
22211;SDS011;11275;52.488;13.462;2023-07-31T12:51:59;2.67;;;1.30;;
22211;SDS011;11275;52.488;13.462;2023-07-31T12:54:25;3.63;;;1.70;;
22211;SDS011;11275;52.488;13.462;2023-07-31T12:56:50;3.78;;;1.50;;
22211;SDS011;11275;52.488;13.462;2023-07-31T12:59:16;1.88;;;1.30;;
22211;SDS011;11275;52.488;13.462;2023-07-31T13:01:42;3.30;;;1.10;;
22211;SDS011;11275;52.488;13.462;2023-07-31T13:04:07;2.20;;;1.13;;
22211;SDS011;11275;52.488;13.462;2023-07-31T13:06:33;2.50;;;1.23;;
22211;SDS011;11275;52.488;13.462;2023-07-31T13:08:59;2.40;;;1.08;;
22211;SDS011;11275;52.488;13.462;2023-07-31T13:11:25;3.80;;;1.33;;
22211;SDS011;11275;52.488;13.462;2023-07-31T13:13:50;1.50;;;0.90;;
22211;SDS011;11275;52.488;13.462;2023-07-31T13:16:16;5.05;;;1.60;;
22211;SDS011;11275;52.488;13.462;2023-07-31T13:18:42;3.35;;;1.00;;
22211;SDS011;11275;52.488;13.462;2023-07-31T13:21:07;3.42;;;1.75;;
22211;SDS011;11275;52.488;13.462;2023-07-31T13:23:33;3.72;;;1.30;;
22211;SDS011;11275;52.488;13.462;2023-07-31T13:25:58;2.83;;;1.75;;
22211;SDS011;11275;52.488;13.462;2023-07-31T13:28:24;2.63;;;1.50;;
22211;SDS011;11275;52.488;13.462;2023-07-31T13:30:50;4.38;;;1.67;;
22211;SDS011;11275;52.488;13.462;2023-07-31T13:33:15;3.88;;;1.92;;
22211;SDS011;11275;52.488;13.462;2023-07-31T13:35:41;3.83;;;1.90;;
22211;SDS011;11275;52.488;13.462;2023-07-31T13:38:06;3.17;;;2.03;;
22211;SDS011;11275;52.488;13.462;2023-07-31T13:40:32;3.28;;;1.88;;
22211;SDS011;11275;52.488;13.462;2023-07-31T13:42:58;2.85;;;2.03;;
22211;SDS011;11275;52.488;13.462;2023-07-31T13:45:23;3.50;;;1.67;;
22211;SDS011;11275;52.488;13.462;2023-07-31T13:47:49;2.10;;;1.50;;
22211;SDS011;11275;52.488;13.462;2023-07-31T13:50:16;3.65;;;1.67;;
22211;SDS011;11275;52.488;13.462;2023-07-31T13:52:44;2.53;;;1.58;;
22211;SDS011;11275;52.488;13.462;2023-07-31T13:55:09;3.33;;;1.58;;
22211;SDS011;11275;52.488;13.462;2023-07-31T13:57:35;4.50;;;1.70;;
22211;SDS011;11275;52.488;13.462;2023-07-31T14:00:04;6.57;;;1.60;;
22211;SDS011;11275;52.488;13.462;2023-07-31T14:02:30;2.92;;;1.73;;
22211;SDS011;11275;52.488;13.462;2023-07-31T14:04:55;2.53;;;1.50;;
22211;SDS011;11275;52.488;13.462;2023-07-31T14:07:21;4.07;;;1.80;;
22211;SDS011;11275;52.488;13.462;2023-07-31T14:09:47;3.10;;;1.67;;
22211;SDS011;11275;52.488;13.462;2023-07-31T14:12:12;4.07;;;1.52;;
22211;SDS011;11275;52.488;13.462;2023-07-31T14:14:38;3.55;;;1.80;;
22211;SDS011;11275;52.488;13.462;2023-07-31T14:17:03;4.50;;;2.63;;
22211;SDS011;11275;52.488;13.462;2023-07-31T14:19:29;3.53;;;1.90;;
22211;SDS011;11275;52.488;13.462;2023-07-31T14:21:58;3.72;;;1.67;;
22211;SDS011;11275;52.488;13.462;2023-07-31T14:24:23;5.18;;;2.55;;
22211;SDS011;11275;52.488;13.462;2023-07-31T14:26:49;7.43;;;2.40;;
22211;SDS011;11275;52.488;13.462;2023-07-31T14:29:15;4.90;;;2.30;;
22211;SDS011;11275;52.488;13.462;2023-07-31T14:31:40;4.50;;;2.53;;
22211;SDS011;11275;52.488;13.462;2023-07-31T14:34:06;4.03;;;2.47;;
22211;SDS011;11275;52.488;13.462;2023-07-31T14:36:31;3.60;;;1.70;;
22211;SDS011;11275;52.488;13.462;2023-07-31T14:38:57;2.28;;;1.42;;
22211;SDS011;11275;52.488;13.462;2023-07-31T14:41:23;4.60;;;1.80;;
22211;SDS011;11275;52.488;13.462;2023-07-31T14:43:48;4.18;;;2.40;;
22211;SDS011;11275;52.488;13.462;2023-07-31T14:46:14;5.32;;;2.10;;
22211;SDS011;11275;52.488;13.462;2023-07-31T14:48:39;5.10;;;2.90;;